sensor_id;sensor_type;location;lat;lon;timestamp;P1;durP1;ratioP1;P2;durP2;ratioP2
8825;SDS011;4449;50.872;4.714;2023-07-31T00:03:26;10.93;;;5.05;;
8825;SDS011;4449;50.872;4.714;2023-07-31T00:05:54;13.23;;;4.85;;
8825;SDS011;4449;50.872;4.714;2023-07-31T00:08:22;8.82;;;4.63;;
8825;SDS011;4449;50.872;4.714;2023-07-31T00:10:51;12.32;;;4.88;;
8825;SDS011;4449;50.872;4.714;2023-07-31T00:13:19;10.07;;;5.43;;
8825;SDS011;4449;50.872;4.714;2023-07-31T00:15:46;11.15;;;5.40;;
8825;SDS011;4449;50.872;4.714;2023-07-31T00:18:14;10.93;;;4.63;;
8825;SDS011;4449;50.872;4.714;2023-07-31T00:20:44;10.23;;;4.95;;
8825;SDS011;4449;50.872;4.714;2023-07-31T00:23:11;13.50;;;4.80;;
8825;SDS011;4449;50.872;4.714;2023-07-31T00:25:39;8.90;;;4.53;;
8825;SDS011;4449;50.872;4.714;2023-07-31T00:28:07;10.80;;;5.10;;
8825;SDS011;4449;50.872;4.714;2023-07-31T00:30:35;11.80;;;5.20;;
8825;SDS011;4449;50.872;4.714;2023-07-31T00:33:02;7.95;;;4.60;;
8825;SDS011;4449;50.872;4.714;2023-07-31T00:35:30;11.23;;;4.70;;
8825;SDS011;4449;50.872;4.714;2023-07-31T00:37:59;12.48;;;5.05;;
8825;SDS011;4449;50.872;4.714;2023-07-31T00:40:27;11.70;;;4.97;;
8825;SDS011;4449;50.872;4.714;2023-07-31T00:42:55;9.95;;;4.88;;
8825;SDS011;4449;50.872;4.714;2023-07-31T00:45:22;9.98;;;4.80;;
8825;SDS011;4449;50.872;4.714;2023-07-31T00:47:52;12.20;;;5.27;;
8825;SDS011;4449;50.872;4.714;2023-07-31T00:50:21;13.68;;;4.80;;
8825;SDS011;4449;50.872;4.714;2023-07-31T00:52:49;9.23;;;4.18;;
8825;SDS011;4449;50.872;4.714;2023-07-31T00:55:19;10.15;;;4.50;;
8825;SDS011;4449;50.872;4.714;2023-07-31T00:57:47;7.60;;;4.60;;
8825;SDS011;4449;50.872;4.714;2023-07-31T01:00:15;10.25;;;5.28;;
8825;SDS011;4449;50.872;4.714;2023-07-31T01:02:43;9.75;;;4.78;;
8825;SDS011;4449;50.872;4.714;2023-07-31T01:05:11;10.20;;;4.95;;
8825;SDS011;4449;50.872;4.714;2023-07-31T01:07:42;7.50;;;4.55;;
8825;SDS011;4449;50.872;4.714;2023-07-31T01:10:14;10.95;;;4.65;;
8825;SDS011;4449;50.872;4.714;2023-07-31T01:12:45;9.53;;;4.90;;
8825;SDS011;4449;50.872;4.714;2023-07-31T01:15:13;8.13;;;4.75;;
8825;SDS011;4449;50.872;4.714;2023-07-31T01:17:43;9.52;;;4.43;;
8825;SDS011;4449;50.872;4.714;2023-07-31T01:20:12;10.68;;;4.90;;
8825;SDS011;4449;50.872;4.714;2023-07-31T01:25:33;9.25;;;4.47;;
8825;SDS011;4449;50.872;4.714;2023-07-31T01:28:07;10.68;;;4.80;;
8825;SDS011;4449;50.872;4.714;2023-07-31T01:30:38;9.90;;;4.97;;
8825;SDS011;4449;50.872;4.714;2023-07-31T01:33:08;10.35;;;4.53;;
8825;SDS011;4449;50.872;4.714;2023-07-31T01:35:36;11.13;;;5.30;;
8825;SDS011;4449;50.872;4.714;2023-07-31T01:38:04;10.57;;;4.63;;
8825;SDS011;4449;50.872;4.714;2023-07-31T01:40:32;10.00;;;4.78;;
8825;SDS011;4449;50.872;4.714;2023-07-31T01:43:00;5.27;;;4.30;;
8825;SDS011;4449;50.872;4.714;2023-07-31T01:45:29;8.23;;;4.70;;
8825;SDS011;4449;50.872;4.714;2023-07-31T01:47:57;7.45;;;4.80;;
8825;SDS011;4449;50.872;4.714;2023-07-31T01:50:24;13.18;;;5.05;;
8825;SDS011;4449;50.872;4.714;2023-07-31T01:52:52;10.65;;;4.80;;
8825;SDS011;4449;50.872;4.714;2023-07-31T01:55:20;8.02;;;4.57;;
8825;SDS011;4449;50.872;4.714;2023-07-31T01:57:47;10.15;;;4.68;;
8825;SDS011;4449;50.872;4.714;2023-07-31T02:00:15;8.05;;;4.60;;
8825;SDS011;4449;50.872;4.714;2023-07-31T02:02:45;10.90;;;5.20;;
8825;SDS011;4449;50.872;4.714;2023-07-31T02:05:13;7.28;;;4.75;;
8825;SDS011;4449;50.872;4.714;2023-07-31T02:07:40;8.18;;;4.70;;
8825;SDS011;4449;50.872;4.714;2023-07-31T02:10:08;8.67;;;4.93;;
8825;SDS011;4449;50.872;4.714;2023-07-31T02:12:36;9.05;;;4.60;;
8825;SDS011;4449;50.872;4.714;2023-07-31T02:15:04;7.38;;;4.97;;
8825;SDS011;4449;50.872;4.714;2023-07-31T02:17:32;9.65;;;4.95;;
8825;SDS011;4449;50.872;4.714;2023-07-31T02:20:01;7.68;;;4.88;;
8825;SDS011;4449;50.872;4.714;2023-07-31T02:22:29;7.18;;;5.05;;
8825;SDS011;4449;50.872;4.714;2023-07-31T02:24:57;9.68;;;5.07;;
8825;SDS011;4449;50.872;4.714;2023-07-31T02:27:24;9.98;;;5.30;;
8825;SDS011;4449;50.872;4.714;2023-07-31T02:29:53;12.05;;;5.38;;
8825;SDS011;4449;50.872;4.714;2023-07-31T02:32:21;5.63;;;4.63;;
8825;SDS011;4449;50.872;4.714;2023-07-31T02:34:48;8.85;;;5.32;;
8825;SDS011;4449;50.872;4.714;2023-07-31T02:37:18;8.80;;;5.32;;
8825;SDS011;4449;50.872;4.714;2023-07-31T02:39:45;8.37;;;5.17;;
8825;SDS011;4449;50.872;4.714;2023-07-31T02:42:13;8.23;;;5.20;;
8825;SDS011;4449;50.872;4.714;2023-07-31T02:44:41;7.85;;;4.78;;
8825;SDS011;4449;50.872;4.714;2023-07-31T02:47:09;8.73;;;5.35;;
8825;SDS011;4449;50.872;4.714;2023-07-31T02:49:36;8.35;;;5.13;;
8825;SDS011;4449;50.872;4.714;2023-07-31T02:52:04;6.05;;;4.70;;
8825;SDS011;4449;50.872;4.714;2023-07-31T02:54:33;8.45;;;5.30;;
8825;SDS011;4449;50.872;4.714;2023-07-31T02:57:01;8.63;;;5.10;;
8825;SDS011;4449;50.872;4.714;2023-07-31T02:59:29;6.68;;;4.95;;
8825;SDS011;4449;50.872;4.714;2023-07-31T03:01:57;7.03;;;4.82;;
8825;SDS011;4449;50.872;4.714;2023-07-31T03:04:25;7.15;;;5.00;;
8825;SDS011;4449;50.872;4.714;2023-07-31T03:06:52;6.87;;;4.70;;
8825;SDS011;4449;50.872;4.714;2023-07-31T03:09:20;5.97;;;4.70;;
8825;SDS011;4449;50.872;4.714;2023-07-31T03:11:49;6.65;;;4.57;;
8825;SDS011;4449;50.872;4.714;2023-07-31T03:14:17;5.47;;;4.47;;
8825;SDS011;4449;50.872;4.714;2023-07-31T03:16:45;7.60;;;4.55;;
8825;SDS011;4449;50.872;4.714;2023-07-31T03:19:12;7.05;;;4.80;;
8825;SDS011;4449;50.872;4.714;2023-07-31T03:21:40;8.55;;;4.55;;
8825;SDS011;4449;50.872;4.714;2023-07-31T03:24:08;9.38;;;4.97;;
8825;SDS011;4449;50.872;4.714;2023-07-31T03:26:37;6.97;;;4.43;;
8825;SDS011;4449;50.872;4.714;2023-07-31T03:29:08;8.25;;;4.50;;
8825;SDS011;4449;50.872;4.714;2023-07-31T03:31:36;6.57;;;4.15;;
8825;SDS011;4449;50.872;4.714;2023-07-31T03:34:04;6.07;;;4.30;;
8825;SDS011;4449;50.872;4.714;2023-07-31T03:36:31;6.83;;;4.40;;
8825;SDS011;4449;50.872;4.714;2023-07-31T03:38:59;6.33;;;4.70;;
8825;SDS011;4449;50.872;4.714;2023-07-31T03:41:27;7.05;;;4.13;;
8825;SDS011;4449;50.872;4.714;2023-07-31T03:43:54;5.30;;;4.47;;
8825;SDS011;4449;50.872;4.714;2023-07-31T03:46:24;4.57;;;4.15;;
8825;SDS011;4449;50.872;4.714;2023-07-31T03:48:52;5.05;;;4.20;;
8825;SDS011;4449;50.872;4.714;2023-07-31T03:51:20;5.95;;;4.38;;
8825;SDS011;4449;50.872;4.714;2023-07-31T03:53:47;5.97;;;4.40;;
8825;SDS011;4449;50.872;4.714;2023-07-31T03:56:15;7.38;;;4.70;;
8825;SDS011;4449;50.872;4.714;2023-07-31T03:58:43;6.30;;;4.22;;
8825;SDS011;4449;50.872;4.714;2023-07-31T04:01:10;5.82;;;4.38;;
8825;SDS011;4449;50.872;4.714;2023-07-31T04:03:40;6.45;;;4.40;;
8825;SDS011;4449;50.872;4.714;2023-07-31T04:06:08;4.93;;;4.20;;
8825;SDS011;4449;50.872;4.714;2023-07-31T04:08:35;4.97;;;4.20;;
8825;SDS011;4449;50.872;4.714;2023-07-31T04:11:03;6.43;;;4.37;;
8825;SDS011;4449;50.872;4.714;2023-07-31T04:13:31;5.80;;;4.33;;
8825;SDS011;4449;50.872;4.714;2023-07-31T04:15:59;6.43;;;4.65;;
8825;SDS011;4449;50.872;4.714;2023-07-31T04:18:26;6.25;;;4.38;;
8825;SDS011;4449;50.872;4.714;2023-07-31T04:20:57;5.05;;;4.40;;
8825;SDS011;4449;50.872;4.714;2023-07-31T04:23:26;5.72;;;4.63;;
8825;SDS011;4449;50.872;4.714;2023-07-31T04:25:54;6.78;;;4.63;;
8825;SDS011;4449;50.872;4.714;2023-07-31T04:28:22;5.25;;;4.45;;
8825;SDS011;4449;50.872;4.714;2023-07-31T04:30:51;6.53;;;4.50;;
8825;SDS011;4449;50.872;4.714;2023-07-31T04:33:19;6.63;;;4.60;;
8825;SDS011;4449;50.872;4.714;2023-07-31T04:35:50;5.33;;;4.40;;
8825;SDS011;4449;50.872;4.714;2023-07-31T04:38:20;4.57;;;3.95;;
8825;SDS011;4449;50.872;4.714;2023-07-31T04:40:47;4.60;;;4.20;;
8825;SDS011;4449;50.872;4.714;2023-07-31T04:43:15;6.93;;;4.65;;
8825;SDS011;4449;50.872;4.714;2023-07-31T04:45:45;5.57;;;4.40;;
8825;SDS011;4449;50.872;4.714;2023-07-31T04:48:13;6.50;;;4.28;;
8825;SDS011;4449;50.872;4.714;2023-07-31T04:50:41;6.47;;;4.68;;
8825;SDS011;4449;50.872;4.714;2023-07-31T04:53:08;5.68;;;4.10;;
8825;SDS011;4449;50.872;4.714;2023-07-31T04:55:38;6.18;;;4.38;;
8825;SDS011;4449;50.872;4.714;2023-07-31T04:58:05;6.18;;;4.40;;
8825;SDS011;4449;50.872;4.714;2023-07-31T05:00:33;5.13;;;4.20;;
8825;SDS011;4449;50.872;4.714;2023-07-31T05:03:00;5.20;;;4.30;;
8825;SDS011;4449;50.872;4.714;2023-07-31T05:05:28;4.72;;;4.13;;
8825;SDS011;4449;50.872;4.714;2023-07-31T05:07:56;5.95;;;4.45;;
8825;SDS011;4449;50.872;4.714;2023-07-31T05:10:24;5.07;;;4.20;;
8825;SDS011;4449;50.872;4.714;2023-07-31T05:12:53;4.75;;;4.22;;
8825;SDS011;4449;50.872;4.714;2023-07-31T05:15:20;6.38;;;4.20;;
8825;SDS011;4449;50.872;4.714;2023-07-31T05:17:48;6.70;;;3.90;;
8825;SDS011;4449;50.872;4.714;2023-07-31T05:20:16;6.32;;;3.90;;
8825;SDS011;4449;50.872;4.714;2023-07-31T05:22:44;6.32;;;4.22;;
8825;SDS011;4449;50.872;4.714;2023-07-31T05:25:11;6.18;;;4.38;;
8825;SDS011;4449;50.872;4.714;2023-07-31T05:27:39;5.35;;;4.15;;
8825;SDS011;4449;50.872;4.714;2023-07-31T05:30:09;4.28;;;3.88;;
8825;SDS011;4449;50.872;4.714;2023-07-31T05:32:36;4.68;;;4.28;;
8825;SDS011;4449;50.872;4.714;2023-07-31T05:35:05;4.78;;;4.20;;
8825;SDS011;4449;50.872;4.714;2023-07-31T05:37:32;5.47;;;4.30;;
8825;SDS011;4449;50.872;4.714;2023-07-31T05:40:00;4.93;;;4.57;;
8825;SDS011;4449;50.872;4.714;2023-07-31T05:42:28;4.45;;;4.05;;
8825;SDS011;4449;50.872;4.714;2023-07-31T05:44:56;6.70;;;4.65;;
8825;SDS011;4449;50.872;4.714;2023-07-31T05:47:25;5.63;;;4.20;;
8825;SDS011;4449;50.872;4.714;2023-07-31T05:49:53;4.70;;;4.23;;
8825;SDS011;4449;50.872;4.714;2023-07-31T05:52:20;4.35;;;3.85;;
8825;SDS011;4449;50.872;4.714;2023-07-31T05:54:48;4.40;;;4.00;;
8825;SDS011;4449;50.872;4.714;2023-07-31T05:57:16;5.10;;;3.70;;
8825;SDS011;4449;50.872;4.714;2023-07-31T05:59:43;5.00;;;4.35;;
8825;SDS011;4449;50.872;4.714;2023-07-31T06:02:11;6.95;;;4.05;;
8825;SDS011;4449;50.872;4.714;2023-07-31T06:04:41;6.28;;;4.00;;
8825;SDS011;4449;50.872;4.714;2023-07-31T06:07:09;7.35;;;4.25;;
8825;SDS011;4449;50.872;4.714;2023-07-31T06:09:36;4.88;;;3.92;;
8825;SDS011;4449;50.872;4.714;2023-07-31T06:12:04;5.88;;;4.03;;
8825;SDS011;4449;50.872;4.714;2023-07-31T06:14:32;7.22;;;3.67;;
8825;SDS011;4449;50.872;4.714;2023-07-31T06:16:59;5.53;;;3.90;;
8825;SDS011;4449;50.872;4.714;2023-07-31T06:19:27;5.03;;;4.07;;
8825;SDS011;4449;50.872;4.714;2023-07-31T06:21:56;5.80;;;4.88;;
8825;SDS011;4449;50.872;4.714;2023-07-31T06:24:24;5.38;;;4.88;;
8825;SDS011;4449;50.872;4.714;2023-07-31T06:26:52;7.57;;;4.35;;
8825;SDS011;4449;50.872;4.714;2023-07-31T06:29:19;5.60;;;4.47;;
8825;SDS011;4449;50.872;4.714;2023-07-31T06:31:47;5.97;;;4.10;;
8825;SDS011;4449;50.872;4.714;2023-07-31T06:34:14;5.97;;;4.55;;
8825;SDS011;4449;50.872;4.714;2023-07-31T06:36:42;5.13;;;4.00;;
8825;SDS011;4449;50.872;4.714;2023-07-31T06:39:11;6.53;;;4.37;;
8825;SDS011;4449;50.872;4.714;2023-07-31T06:41:39;4.97;;;3.70;;
8825;SDS011;4449;50.872;4.714;2023-07-31T06:44:08;5.18;;;3.60;;
8825;SDS011;4449;50.872;4.714;2023-07-31T06:46:35;9.38;;;4.32;;
8825;SDS011;4449;50.872;4.714;2023-07-31T06:49:03;10.88;;;4.30;;
8825;SDS011;4449;50.872;4.714;2023-07-31T06:51:31;13.10;;;4.18;;
8825;SDS011;4449;50.872;4.714;2023-07-31T06:53:58;7.97;;;4.13;;
8825;SDS011;4449;50.872;4.714;2023-07-31T06:56:28;6.07;;;4.10;;
8825;SDS011;4449;50.872;4.714;2023-07-31T06:58:55;5.30;;;4.05;;
8825;SDS011;4449;50.872;4.714;2023-07-31T07:01:23;6.05;;;4.10;;
8825;SDS011;4449;50.872;4.714;2023-07-31T07:03:51;5.37;;;3.97;;
8825;SDS011;4449;50.872;4.714;2023-07-31T07:06:19;5.40;;;3.75;;
8825;SDS011;4449;50.872;4.714;2023-07-31T07:08:46;6.30;;;3.72;;
8825;SDS011;4449;50.872;4.714;2023-07-31T07:11:14;5.10;;;3.85;;
8825;SDS011;4449;50.872;4.714;2023-07-31T07:13:43;4.30;;;3.58;;
8825;SDS011;4449;50.872;4.714;2023-07-31T07:16:11;8.38;;;4.05;;
8825;SDS011;4449;50.872;4.714;2023-07-31T07:18:38;7.50;;;4.60;;
8825;SDS011;4449;50.872;4.714;2023-07-31T07:21:06;7.70;;;3.40;;
8825;SDS011;4449;50.872;4.714;2023-07-31T07:23:34;7.75;;;3.75;;
8825;SDS011;4449;50.872;4.714;2023-07-31T07:26:02;5.55;;;3.85;;
8825;SDS011;4449;50.872;4.714;2023-07-31T07:28:30;13.02;;;4.13;;
8825;SDS011;4449;50.872;4.714;2023-07-31T07:30:59;6.05;;;4.18;;
8825;SDS011;4449;50.872;4.714;2023-07-31T07:33:26;4.20;;;3.33;;
8825;SDS011;4449;50.872;4.714;2023-07-31T07:35:54;7.70;;;4.05;;
8825;SDS011;4449;50.872;4.714;2023-07-31T07:38:22;4.25;;;3.85;;
8825;SDS011;4449;50.872;4.714;2023-07-31T07:40:50;7.43;;;5.22;;
8825;SDS011;4449;50.872;4.714;2023-07-31T07:43:19;7.57;;;4.07;;
8825;SDS011;4449;50.872;4.714;2023-07-31T07:45:46;4.60;;;3.85;;
8825;SDS011;4449;50.872;4.714;2023-07-31T07:48:15;4.05;;;3.70;;
8825;SDS011;4449;50.872;4.714;2023-07-31T07:50:43;6.30;;;3.85;;
8825;SDS011;4449;50.872;4.714;2023-07-31T07:53:11;4.13;;;3.25;;
8825;SDS011;4449;50.872;4.714;2023-07-31T07:55:39;8.27;;;3.85;;
8825;SDS011;4449;50.872;4.714;2023-07-31T07:58:07;5.13;;;3.77;;
8825;SDS011;4449;50.872;4.714;2023-07-31T08:00:35;6.28;;;3.67;;
8825;SDS011;4449;50.872;4.714;2023-07-31T08:03:03;4.13;;;3.40;;
8825;SDS011;4449;50.872;4.714;2023-07-31T08:05:32;6.55;;;3.80;;
8825;SDS011;4449;50.872;4.714;2023-07-31T08:08:00;3.75;;;3.22;;
8825;SDS011;4449;50.872;4.714;2023-07-31T08:10:28;4.00;;;3.40;;
8825;SDS011;4449;50.872;4.714;2023-07-31T08:12:55;3.45;;;3.13;;
8825;SDS011;4449;50.872;4.714;2023-07-31T08:15:23;3.70;;;3.40;;
8825;SDS011;4449;50.872;4.714;2023-07-31T08:17:51;18.25;;;5.32;;
8825;SDS011;4449;50.872;4.714;2023-07-31T08:20:19;3.40;;;3.00;;
8825;SDS011;4449;50.872;4.714;2023-07-31T08:22:48;4.63;;;3.13;;
8825;SDS011;4449;50.872;4.714;2023-07-31T08:25:16;5.70;;;3.33;;
8825;SDS011;4449;50.872;4.714;2023-07-31T08:27:44;3.70;;;3.10;;
8825;SDS011;4449;50.872;4.714;2023-07-31T08:30:12;5.70;;;3.30;;
8825;SDS011;4449;50.872;4.714;2023-07-31T08:32:40;7.43;;;3.97;;
8825;SDS011;4449;50.872;4.714;2023-07-31T08:35:07;4.05;;;3.38;;
8825;SDS011;4449;50.872;4.714;2023-07-31T08:37:35;3.60;;;2.72;;
8825;SDS011;4449;50.872;4.714;2023-07-31T08:40:05;6.47;;;3.15;;
8825;SDS011;4449;50.872;4.714;2023-07-31T08:42:33;6.05;;;3.08;;
8825;SDS011;4449;50.872;4.714;2023-07-31T08:45:01;5.03;;;3.40;;
8825;SDS011;4449;50.872;4.714;2023-07-31T08:47:29;4.73;;;3.10;;
8825;SDS011;4449;50.872;4.714;2023-07-31T08:49:57;4.75;;;2.83;;
8825;SDS011;4449;50.872;4.714;2023-07-31T08:52:25;9.67;;;3.73;;
8825;SDS011;4449;50.872;4.714;2023-07-31T08:54:53;9.65;;;3.53;;
8825;SDS011;4449;50.872;4.714;2023-07-31T08:57:22;7.03;;;3.20;;
8825;SDS011;4449;50.872;4.714;2023-07-31T08:59:50;7.50;;;3.10;;
8825;SDS011;4449;50.872;4.714;2023-07-31T09:02:17;5.75;;;2.63;;
8825;SDS011;4449;50.872;4.714;2023-07-31T09:04:46;6.78;;;3.40;;
8825;SDS011;4449;50.872;4.714;2023-07-31T09:07:14;8.00;;;3.35;;
8825;SDS011;4449;50.872;4.714;2023-07-31T09:09:42;4.55;;;2.60;;
8825;SDS011;4449;50.872;4.714;2023-07-31T09:12:11;5.90;;;3.10;;
8825;SDS011;4449;50.872;4.714;2023-07-31T09:14:40;13.68;;;3.08;;
8825;SDS011;4449;50.872;4.714;2023-07-31T09:17:09;5.60;;;3.30;;
8825;SDS011;4449;50.872;4.714;2023-07-31T09:19:38;5.28;;;3.22;;
8825;SDS011;4449;50.872;4.714;2023-07-31T09:34:30;12.73;;;3.35;;
8825;SDS011;4449;50.872;4.714;2023-07-31T09:37:01;5.60;;;3.10;;
8825;SDS011;4449;50.872;4.714;2023-07-31T09:39:29;5.22;;;3.17;;
8825;SDS011;4449;50.872;4.714;2023-07-31T09:41:57;7.97;;;3.53;;
8825;SDS011;4449;50.872;4.714;2023-07-31T09:44:37;8.30;;;3.67;;
8825;SDS011;4449;50.872;4.714;2023-07-31T09:47:06;4.78;;;3.30;;
8825;SDS011;4449;50.872;4.714;2023-07-31T09:49:35;6.43;;;2.97;;
8825;SDS011;4449;50.872;4.714;2023-07-31T09:52:03;4.95;;;3.20;;
8825;SDS011;4449;50.872;4.714;2023-07-31T09:54:39;7.88;;;3.47;;
8825;SDS011;4449;50.872;4.714;2023-07-31T09:57:06;4.85;;;3.10;;
8825;SDS011;4449;50.872;4.714;2023-07-31T09:59:35;4.07;;;2.90;;
8825;SDS011;4449;50.872;4.714;2023-07-31T10:02:03;4.22;;;3.50;;
8825;SDS011;4449;50.872;4.714;2023-07-31T10:04:31;5.68;;;3.60;;
8825;SDS011;4449;50.872;4.714;2023-07-31T10:07:00;4.13;;;3.53;;
8825;SDS011;4449;50.872;4.714;2023-07-31T10:09:29;4.15;;;3.50;;
8825;SDS011;4449;50.872;4.714;2023-07-31T10:11:59;4.43;;;3.42;;
8825;SDS011;4449;50.872;4.714;2023-07-31T10:14:27;6.03;;;3.95;;
8825;SDS011;4449;50.872;4.714;2023-07-31T10:16:55;6.47;;;4.10;;
8825;SDS011;4449;50.872;4.714;2023-07-31T10:19:24;6.65;;;3.88;;
8825;SDS011;4449;50.872;4.714;2023-07-31T10:21:52;7.00;;;4.05;;
8825;SDS011;4449;50.872;4.714;2023-07-31T10:24:23;6.82;;;4.20;;
8825;SDS011;4449;50.872;4.714;2023-07-31T10:26:52;5.38;;;4.30;;
8825;SDS011;4449;50.872;4.714;2023-07-31T10:29:20;5.13;;;4.07;;
8825;SDS011;4449;50.872;4.714;2023-07-31T10:31:49;6.32;;;4.40;;
8825;SDS011;4449;50.872;4.714;2023-07-31T10:34:17;5.82;;;4.18;;
8825;SDS011;4449;50.872;4.714;2023-07-31T10:36:45;5.13;;;4.43;;
8825;SDS011;4449;50.872;4.714;2023-07-31T10:42:13;7.18;;;4.38;;
8825;SDS011;4449;50.872;4.714;2023-07-31T10:44:43;5.65;;;3.97;;
8825;SDS011;4449;50.872;4.714;2023-07-31T10:47:14;6.03;;;4.40;;
8825;SDS011;4449;50.872;4.714;2023-07-31T10:49:44;6.32;;;4.03;;
8825;SDS011;4449;50.872;4.714;2023-07-31T10:52:12;5.15;;;4.30;;
8825;SDS011;4449;50.872;4.714;2023-07-31T10:54:40;51.97;;;12.35;;
8825;SDS011;4449;50.872;4.714;2023-07-31T10:57:20;7.20;;;4.37;;
8825;SDS011;4449;50.872;4.714;2023-07-31T10:59:48;7.03;;;4.10;;
8825;SDS011;4449;50.872;4.714;2023-07-31T11:02:26;6.10;;;4.00;;
8825;SDS011;4449;50.872;4.714;2023-07-31T11:05:06;6.47;;;4.40;;
8825;SDS011;4449;50.872;4.714;2023-07-31T11:10:19;6.87;;;4.33;;
8825;SDS011;4449;50.872;4.714;2023-07-31T11:12:48;7.53;;;4.38;;
8825;SDS011;4449;50.872;4.714;2023-07-31T11:15:16;6.07;;;4.50;;
8825;SDS011;4449;50.872;4.714;2023-07-31T11:17:44;7.68;;;4.20;;
8825;SDS011;4449;50.872;4.714;2023-07-31T12:19:45;6.73;;;4.00;;
8825;SDS011;4449;50.872;4.714;2023-07-31T12:22:13;8.98;;;4.25;;
8825;SDS011;4449;50.872;4.714;2023-07-31T12:24:42;6.00;;;4.03;;
8825;SDS011;4449;50.872;4.714;2023-07-31T12:27:11;5.60;;;4.03;;
8825;SDS011;4449;50.872;4.714;2023-07-31T12:29:39;5.20;;;4.07;;
8825;SDS011;4449;50.872;4.714;2023-07-31T12:32:18;6.70;;;4.30;;
8825;SDS011;4449;50.872;4.714;2023-07-31T12:34:47;5.63;;;3.75;;
8825;SDS011;4449;50.872;4.714;2023-07-31T12:37:15;4.72;;;3.83;;
8825;SDS011;4449;50.872;4.714;2023-07-31T12:39:43;6.50;;;4.00;;
8825;SDS011;4449;50.872;4.714;2023-07-31T12:42:11;4.18;;;3.70;;
8825;SDS011;4449;50.872;4.714;2023-07-31T12:44:38;7.72;;;4.43;;
8825;SDS011;4449;50.872;4.714;2023-07-31T12:47:06;7.45;;;4.30;;
8825;SDS011;4449;50.872;4.714;2023-07-31T12:49:34;7.57;;;4.55;;
8825;SDS011;4449;50.872;4.714;2023-07-31T12:52:03;4.65;;;4.10;;
8825;SDS011;4449;50.872;4.714;2023-07-31T12:54:31;7.38;;;4.68;;
8825;SDS011;4449;50.872;4.714;2023-07-31T12:57:00;6.03;;;4.65;;
8825;SDS011;4449;50.872;4.714;2023-07-31T12:59:28;6.22;;;4.20;;
8825;SDS011;4449;50.872;4.714;2023-07-31T13:01:56;6.68;;;4.60;;
8825;SDS011;4449;50.872;4.714;2023-07-31T13:04:24;6.78;;;4.65;;
8825;SDS011;4449;50.872;4.714;2023-07-31T13:06:51;8.65;;;4.10;;
8825;SDS011;4449;50.872;4.714;2023-07-31T13:09:20;6.72;;;4.43;;
8825;SDS011;4449;50.872;4.714;2023-07-31T13:11:48;6.00;;;4.57;;
8825;SDS011;4449;50.872;4.714;2023-07-31T13:14:16;7.47;;;5.03;;
8825;SDS011;4449;50.872;4.714;2023-07-31T13:16:43;7.80;;;4.60;;
8825;SDS011;4449;50.872;4.714;2023-07-31T13:19:11;11.40;;;5.38;;
8825;SDS011;4449;50.872;4.714;2023-07-31T13:21:39;8.20;;;4.63;;
8825;SDS011;4449;50.872;4.714;2023-07-31T13:24:07;8.95;;;4.70;;
8825;SDS011;4449;50.872;4.714;2023-07-31T13:26:36;6.50;;;4.78;;
8825;SDS011;4449;50.872;4.714;2023-07-31T13:29:04;6.13;;;4.30;;
8825;SDS011;4449;50.872;4.714;2023-07-31T13:31:32;4.32;;;3.78;;
8825;SDS011;4449;50.872;4.714;2023-07-31T13:33:59;6.13;;;3.83;;
8825;SDS011;4449;50.872;4.714;2023-07-31T13:36:28;5.63;;;4.00;;
8825;SDS011;4449;50.872;4.714;2023-07-31T13:38:56;7.25;;;4.00;;
8825;SDS011;4449;50.872;4.714;2023-07-31T13:41:23;5.68;;;3.83;;
8825;SDS011;4449;50.872;4.714;2023-07-31T13:43:53;6.50;;;4.20;;
8825;SDS011;4449;50.872;4.714;2023-07-31T13:46:21;6.50;;;3.75;;
8825;SDS011;4449;50.872;4.714;2023-07-31T13:48:48;5.88;;;3.88;;
8825;SDS011;4449;50.872;4.714;2023-07-31T13:51:16;6.20;;;3.97;;
8825;SDS011;4449;50.872;4.714;2023-07-31T13:53:44;4.53;;;3.35;;
8825;SDS011;4449;50.872;4.714;2023-07-31T13:56:11;6.45;;;3.60;;
8825;SDS011;4449;50.872;4.714;2023-07-31T13:58:39;4.45;;;3.33;;
8825;SDS011;4449;50.872;4.714;2023-07-31T14:01:08;6.25;;;3.75;;
8825;SDS011;4449;50.872;4.714;2023-07-31T14:03:36;4.75;;;3.70;;
8825;SDS011;4449;50.872;4.714;2023-07-31T14:06:04;5.25;;;3.40;;
8825;SDS011;4449;50.872;4.714;2023-07-31T14:08:31;5.30;;;3.28;;
8825;SDS011;4449;50.872;4.714;2023-07-31T14:10:59;3.58;;;3.03;;
8825;SDS011;4449;50.872;4.714;2023-07-31T14:13:27;4.55;;;3.30;;
8825;SDS011;4449;50.872;4.714;2023-07-31T14:15:54;3.45;;;3.15;;
8825;SDS011;4449;50.872;4.714;2023-07-31T14:18:24;4.22;;;3.08;;
8825;SDS011;4449;50.872;4.714;2023-07-31T14:20:51;3.22;;;2.92;;
8825;SDS011;4449;50.872;4.714;2023-07-31T14:23:19;4.77;;;2.80;;
8825;SDS011;4449;50.872;4.714;2023-07-31T14:25:47;3.72;;;3.08;;
8825;SDS011;4449;50.872;4.714;2023-07-31T14:28:15;4.38;;;3.10;;
8825;SDS011;4449;50.872;4.714;2023-07-31T14:30:43;4.10;;;3.10;;
8825;SDS011;4449;50.872;4.714;2023-07-31T14:33:11;4.72;;;3.20;;
8825;SDS011;4449;50.872;4.714;2023-07-31T14:35:40;3.90;;;3.38;;
8825;SDS011;4449;50.872;4.714;2023-07-31T14:38:07;3.30;;;3.00;;
8825;SDS011;4449;50.872;4.714;2023-07-31T14:40:35;3.55;;;3.15;;
8825;SDS011;4449;50.872;4.714;2023-07-31T14:43:03;3.30;;;3.00;;
8825;SDS011;4449;50.872;4.714;2023-07-31T14:45:31;3.55;;;3.25;;
8825;SDS011;4449;50.872;4.714;2023-07-31T14:47:59;5.32;;;3.50;;
8825;SDS011;4449;50.872;4.714;2023-07-31T14:50:26;3.67;;;3.05;;
8825;SDS011;4449;50.872;4.714;2023-07-31T14:52:55;3.10;;;2.90;;
8825;SDS011;4449;50.872;4.714;2023-07-31T14:55:23;3.57;;;3.00;;
8825;SDS011;4449;50.872;4.714;2023-07-31T14:57:51;3.70;;;3.40;;
8825;SDS011;4449;50.872;4.714;2023-07-31T15:00:19;3.33;;;3.03;;
8825;SDS011;4449;50.872;4.714;2023-07-31T15:02:46;2.63;;;2.53;;
8825;SDS011;4449;50.872;4.714;2023-07-31T15:05:14;3.75;;;2.80;;
8825;SDS011;4449;50.872;4.714;2023-07-31T15:07:41;2.97;;;2.78;;
8825;SDS011;4449;50.872;4.714;2023-07-31T15:10:10;2.80;;;2.60;;
8825;SDS011;4449;50.872;4.714;2023-07-31T15:12:39;2.93;;;2.70;;
8825;SDS011;4449;50.872;4.714;2023-07-31T15:15:07;2.78;;;2.58;;
8825;SDS011;4449;50.872;4.714;2023-07-31T15:17:35;3.40;;;2.92;;
8825;SDS011;4449;50.872;4.714;2023-07-31T15:20:03;2.45;;;2.28;;
8825;SDS011;4449;50.872;4.714;2023-07-31T15:22:31;2.42;;;2.25;;
8825;SDS011;4449;50.872;4.714;2023-07-31T15:24:59;2.60;;;2.40;;
8825;SDS011;4449;50.872;4.714;2023-07-31T15:27:28;2.80;;;2.40;;
8825;SDS011;4449;50.872;4.714;2023-07-31T15:29:56;2.13;;;2.03;;
8825;SDS011;4449;50.872;4.714;2023-07-31T15:32:24;2.53;;;2.33;;
8825;SDS011;4449;50.872;4.714;2023-07-31T15:50:07;2.40;;;1.80;;
8825;SDS011;4449;50.872;4.714;2023-07-31T15:52:34;1.98;;;1.80;;
8825;SDS011;4449;50.872;4.714;2023-07-31T15:55:03;1.88;;;1.77;;
8825;SDS011;4449;50.872;4.714;2023-07-31T15:57:31;2.00;;;1.90;;
8825;SDS011;4449;50.872;4.714;2023-07-31T15:59:59;1.63;;;1.60;;
8825;SDS011;4449;50.872;4.714;2023-07-31T16:02:27;1.40;;;1.40;;
8825;SDS011;4449;50.872;4.714;2023-07-31T16:04:55;1.70;;;1.60;;
8825;SDS011;4449;50.872;4.714;2023-07-31T16:07:24;1.90;;;1.80;;
8825;SDS011;4449;50.872;4.714;2023-07-31T16:09:53;1.52;;;1.52;;
8825;SDS011;4449;50.872;4.714;2023-07-31T16:12:20;1.77;;;1.70;;
8825;SDS011;4449;50.872;4.714;2023-07-31T16:14:48;1.52;;;1.42;;
8825;SDS011;4449;50.872;4.714;2023-07-31T16:17:16;1.80;;;1.70;;
8825;SDS011;4449;50.872;4.714;2023-07-31T16:19:43;1.73;;;1.52;;
8825;SDS011;4449;50.872;4.714;2023-07-31T16:22:11;1.65;;;1.65;;
8825;SDS011;4449;50.872;4.714;2023-07-31T16:24:40;1.77;;;1.50;;
8825;SDS011;4449;50.872;4.714;2023-07-31T16:27:08;1.50;;;1.40;;
8825;SDS011;4449;50.872;4.714;2023-07-31T16:29:36;1.80;;;1.70;;
8825;SDS011;4449;50.872;4.714;2023-07-31T16:32:04;5.97;;;2.50;;
8825;SDS011;4449;50.872;4.714;2023-07-31T16:34:31;2.40;;;1.80;;
8825;SDS011;4449;50.872;4.714;2023-07-31T16:36:59;1.65;;;1.55;;
8825;SDS011;4449;50.872;4.714;2023-07-31T16:39:27;1.88;;;1.77;;
8825;SDS011;4449;50.872;4.714;2023-07-31T16:42:01;1.83;;;1.73;;
8825;SDS011;4449;50.872;4.714;2023-07-31T16:44:29;1.60;;;1.50;;
8825;SDS011;4449;50.872;4.714;2023-07-31T16:46:57;1.55;;;1.55;;
8825;SDS011;4449;50.872;4.714;2023-07-31T16:49:25;1.50;;;1.40;;
8825;SDS011;4449;50.872;4.714;2023-07-31T16:51:52;1.70;;;1.60;;
8825;SDS011;4449;50.872;4.714;2023-07-31T16:54:20;1.38;;;1.38;;
8825;SDS011;4449;50.872;4.714;2023-07-31T16:56:48;1.75;;;1.65;;
8825;SDS011;4449;50.872;4.714;2023-07-31T16:59:18;1.63;;;1.60;;